sensor_id;sensor_type;location;lat;lon;timestamp;temperature;humidity
3208;DHT22;1616;52.394;9.756;2023-05-29T00:02:14;15.40;1.00
3208;DHT22;1616;52.394;9.756;2023-05-29T00:04:39;15.30;1.00
3208;DHT22;1616;52.394;9.756;2023-05-29T00:07:06;15.30;1.00
3208;DHT22;1616;52.394;9.756;2023-05-29T00:09:32;15.10;1.00
3208;DHT22;1616;52.394;9.756;2023-05-29T00:11:57;15.20;1.00
3208;DHT22;1616;52.394;9.756;2023-05-29T00:14:23;15.10;1.00
3208;DHT22;1616;52.394;9.756;2023-05-29T00:16:51;15.10;1.00
3208;DHT22;1616;52.394;9.756;2023-05-29T00:19:18;15.10;1.00
3208;DHT22;1616;52.394;9.756;2023-05-29T00:21:45;15.10;1.00
3208;DHT22;1616;52.394;9.756;2023-05-29T00:24:17;15.00;1.00
3208;DHT22;1616;52.394;9.756;2023-05-29T00:26:43;14.90;1.00
3208;DHT22;1616;52.394;9.756;2023-05-29T00:29:09;14.90;1.00
3208;DHT22;1616;52.394;9.756;2023-05-29T00:31:35;14.90;1.00
3208;DHT22;1616;52.394;9.756;2023-05-29T00:34:02;14.90;1.00
3208;DHT22;1616;52.394;9.756;2023-05-29T00:36:27;14.80;1.00
3208;DHT22;1616;52.394;9.756;2023-05-29T00:38:55;14.80;1.00
3208;DHT22;1616;52.394;9.756;2023-05-29T00:41:21;14.80;1.00
3208;DHT22;1616;52.394;9.756;2023-05-29T00:43:46;14.70;1.00
3208;DHT22;1616;52.394;9.756;2023-05-29T00:46:13;14.70;1.00
3208;DHT22;1616;52.394;9.756;2023-05-29T00:48:41;14.60;1.00
3208;DHT22;1616;52.394;9.756;2023-05-29T00:51:08;14.50;1.00
3208;DHT22;1616;52.394;9.756;2023-05-29T00:53:34;14.50;1.00
3208;DHT22;1616;52.394;9.756;2023-05-29T00:56:00;14.50;1.00
3208;DHT22;1616;52.394;9.756;2023-05-29T00:58:26;14.40;1.00
3208;DHT22;1616;52.394;9.756;2023-05-29T01:00:52;14.40;1.00
3208;DHT22;1616;52.394;9.756;2023-05-29T01:03:20;14.40;1.00
3208;DHT22;1616;52.394;9.756;2023-05-29T01:05:48;14.30;1.00
3208;DHT22;1616;52.394;9.756;2023-05-29T01:08:14;14.30;1.00
3208;DHT22;1616;52.394;9.756;2023-05-29T01:10:40;14.20;1.00
3208;DHT22;1616;52.394;9.756;2023-05-29T01:13:19;14.20;1.00
3208;DHT22;1616;52.394;9.756;2023-05-29T01:18:39;14.10;1.00
3208;DHT22;1616;52.394;9.756;2023-05-29T01:21:42;14.10;1.00
3208;DHT22;1616;52.394;9.756;2023-05-29T01:27:03;14.00;1.00
3208;DHT22;1616;52.394;9.756;2023-05-29T01:29:33;14.00;1.00
3208;DHT22;1616;52.394;9.756;2023-05-29T01:32:00;13.90;1.00
3208;DHT22;1616;52.394;9.756;2023-05-29T01:34:28;13.80;1.00
3208;DHT22;1616;52.394;9.756;2023-05-29T01:36:53;13.90;1.00
3208;DHT22;1616;52.394;9.756;2023-05-29T01:39:19;13.90;1.00
3208;DHT22;1616;52.394;9.756;2023-05-29T01:41:47;13.80;1.00
3208;DHT22;1616;52.394;9.756;2023-05-29T01:44:14;13.80;1.00
3208;DHT22;1616;52.394;9.756;2023-05-29T01:46:41;13.80;1.00
3208;DHT22;1616;52.394;9.756;2023-05-29T01:49:08;13.80;1.00
3208;DHT22;1616;52.394;9.756;2023-05-29T01:51:34;13.80;1.00
3208;DHT22;1616;52.394;9.756;2023-05-29T01:54:01;13.70;1.00
3208;DHT22;1616;52.394;9.756;2023-05-29T01:56:28;13.70;1.00
3208;DHT22;1616;52.394;9.756;2023-05-29T01:58:57;13.70;1.00
3208;DHT22;1616;52.394;9.756;2023-05-29T02:01:24;13.70;1.00
3208;DHT22;1616;52.394;9.756;2023-05-29T02:03:50;13.60;1.00
3208;DHT22;1616;52.394;9.756;2023-05-29T02:06:16;13.50;1.00
3208;DHT22;1616;52.394;9.756;2023-05-29T02:08:42;13.40;1.00
3208;DHT22;1616;52.394;9.756;2023-05-29T02:11:08;13.40;1.00
3208;DHT22;1616;52.394;9.756;2023-05-29T02:13:34;13.40;1.00
3208;DHT22;1616;52.394;9.756;2023-05-29T02:15:59;13.40;1.00
3208;DHT22;1616;52.394;9.756;2023-05-29T02:18:25;13.30;1.00
3208;DHT22;1616;52.394;9.756;2023-05-29T02:20:51;13.20;1.00
3208;DHT22;1616;52.394;9.756;2023-05-29T02:23:16;13.20;1.00
3208;DHT22;1616;52.394;9.756;2023-05-29T02:25:42;13.20;1.00
3208;DHT22;1616;52.394;9.756;2023-05-29T02:28:08;13.10;1.00
3208;DHT22;1616;52.394;9.756;2023-05-29T02:30:34;13.10;1.00
3208;DHT22;1616;52.394;9.756;2023-05-29T02:33:00;13.10;1.00
3208;DHT22;1616;52.394;9.756;2023-05-29T02:35:25;13.00;1.00
3208;DHT22;1616;52.394;9.756;2023-05-29T02:37:52;13.00;1.00
3208;DHT22;1616;52.394;9.756;2023-05-29T02:40:19;12.90;1.00
3208;DHT22;1616;52.394;9.756;2023-05-29T02:42:45;12.70;1.00
3208;DHT22;1616;52.394;9.756;2023-05-29T02:45:11;12.90;1.00
3208;DHT22;1616;52.394;9.756;2023-05-29T02:47:37;12.80;1.00
3208;DHT22;1616;52.394;9.756;2023-05-29T02:50:04;12.80;1.00
3208;DHT22;1616;52.394;9.756;2023-05-29T02:52:31;12.80;1.00
3208;DHT22;1616;52.394;9.756;2023-05-29T02:54:57;12.80;1.00
3208;DHT22;1616;52.394;9.756;2023-05-29T02:57:24;12.80;1.00
3208;DHT22;1616;52.394;9.756;2023-05-29T02:59:49;12.80;1.00
3208;DHT22;1616;52.394;9.756;2023-05-29T03:02:15;12.70;1.00
3208;DHT22;1616;52.394;9.756;2023-05-29T03:04:41;12.70;1.00
3208;DHT22;1616;52.394;9.756;2023-05-29T03:07:06;12.70;1.00
3208;DHT22;1616;52.394;9.756;2023-05-29T03:09:32;12.60;1.00
3208;DHT22;1616;52.394;9.756;2023-05-29T03:11:58;12.70;1.00
3208;DHT22;1616;52.394;9.756;2023-05-29T03:14:26;12.70;1.00
3208;DHT22;1616;52.394;9.756;2023-05-29T03:16:53;12.70;1.00
3208;DHT22;1616;52.394;9.756;2023-05-29T03:19:19;12.70;1.00
3208;DHT22;1616;52.394;9.756;2023-05-29T03:21:45;12.70;1.00
3208;DHT22;1616;52.394;9.756;2023-05-29T03:24:11;12.70;1.00
3208;DHT22;1616;52.394;9.756;2023-05-29T03:26:39;12.70;1.00
3208;DHT22;1616;52.394;9.756;2023-05-29T03:29:05;12.70;1.00
3208;DHT22;1616;52.394;9.756;2023-05-29T03:31:31;12.60;1.00
3208;DHT22;1616;52.394;9.756;2023-05-29T03:33:57;12.70;1.00
3208;DHT22;1616;52.394;9.756;2023-05-29T03:36:23;12.60;1.00
3208;DHT22;1616;52.394;9.756;2023-05-29T03:38:49;12.70;1.00
3208;DHT22;1616;52.394;9.756;2023-05-29T03:41:14;12.70;1.00
3208;DHT22;1616;52.394;9.756;2023-05-29T03:43:40;12.80;1.00
3208;DHT22;1616;52.394;9.756;2023-05-29T03:46:05;12.90;1.00
3208;DHT22;1616;52.394;9.756;2023-05-29T03:48:31;13.00;1.00
3208;DHT22;1616;52.394;9.756;2023-05-29T03:50:56;13.00;1.00
3208;DHT22;1616;52.394;9.756;2023-05-29T03:53:22;13.00;1.00
3208;DHT22;1616;52.394;9.756;2023-05-29T03:55:48;13.00;1.00
3208;DHT22;1616;52.394;9.756;2023-05-29T03:58:13;13.10;1.00
3208;DHT22;1616;52.394;9.756;2023-05-29T04:00:39;13.20;1.00
3208;DHT22;1616;52.394;9.756;2023-05-29T04:03:06;13.30;1.00
3208;DHT22;1616;52.394;9.756;2023-05-29T04:05:32;13.90;1.00
3208;DHT22;1616;52.394;9.756;2023-05-29T04:07:58;13.50;1.00
3208;DHT22;1616;52.394;9.756;2023-05-29T04:10:23;13.50;1.00
3208;DHT22;1616;52.394;9.756;2023-05-29T04:12:50;13.60;1.00
3208;DHT22;1616;52.394;9.756;2023-05-29T04:15:16;13.70;1.00
3208;DHT22;1616;52.394;9.756;2023-05-29T04:17:42;13.80;1.00
3208;DHT22;1616;52.394;9.756;2023-05-29T04:20:08;13.80;1.00
3208;DHT22;1616;52.394;9.756;2023-05-29T04:22:37;13.90;1.00
3208;DHT22;1616;52.394;9.756;2023-05-29T04:25:04;14.00;1.00
3208;DHT22;1616;52.394;9.756;2023-05-29T04:27:31;14.10;1.00
3208;DHT22;1616;52.394;9.756;2023-05-29T04:30:06;14.10;1.00
3208;DHT22;1616;52.394;9.756;2023-05-29T04:32:32;14.40;1.00
3208;DHT22;1616;52.394;9.756;2023-05-29T04:35:01;14.50;1.00
3208;DHT22;1616;52.394;9.756;2023-05-29T04:37:31;14.70;1.00
3208;DHT22;1616;52.394;9.756;2023-05-29T04:39:57;14.90;1.00
3208;DHT22;1616;52.394;9.756;2023-05-29T04:42:23;15.40;1.00
3208;DHT22;1616;52.394;9.756;2023-05-29T04:44:51;15.60;1.00
3208;DHT22;1616;52.394;9.756;2023-05-29T04:47:18;15.70;1.00
3208;DHT22;1616;52.394;9.756;2023-05-29T04:49:45;16.00;1.00
3208;DHT22;1616;52.394;9.756;2023-05-29T04:52:16;16.30;1.00
3208;DHT22;1616;52.394;9.756;2023-05-29T04:54:42;16.60;1.00
3208;DHT22;1616;52.394;9.756;2023-05-29T04:57:08;17.00;1.00
3208;DHT22;1616;52.394;9.756;2023-05-29T04:59:34;17.50;1.00
3208;DHT22;1616;52.394;9.756;2023-05-29T05:02:00;18.10;1.00
3208;DHT22;1616;52.394;9.756;2023-05-29T05:04:26;18.70;1.00
3208;DHT22;1616;52.394;9.756;2023-05-29T05:06:52;19.20;1.00
3208;DHT22;1616;52.394;9.756;2023-05-29T05:09:17;19.50;1.00
3208;DHT22;1616;52.394;9.756;2023-05-29T05:11:43;19.80;1.00
3208;DHT22;1616;52.394;9.756;2023-05-29T05:14:09;20.20;1.00
3208;DHT22;1616;52.394;9.756;2023-05-29T05:16:34;20.50;1.00
3208;DHT22;1616;52.394;9.756;2023-05-29T05:19:00;21.10;1.00
3208;DHT22;1616;52.394;9.756;2023-05-29T05:21:26;21.40;1.00
3208;DHT22;1616;52.394;9.756;2023-05-29T05:23:51;21.90;1.00
3208;DHT22;1616;52.394;9.756;2023-05-29T05:26:17;22.10;1.00
3208;DHT22;1616;52.394;9.756;2023-05-29T05:28:43;22.20;1.00
3208;DHT22;1616;52.394;9.756;2023-05-29T05:31:08;22.20;1.00
3208;DHT22;1616;52.394;9.756;2023-05-29T05:33:34;22.40;1.00
3208;DHT22;1616;52.394;9.756;2023-05-29T05:36:00;22.40;1.00
3208;DHT22;1616;52.394;9.756;2023-05-29T05:38:26;22.20;1.00
3208;DHT22;1616;52.394;9.756;2023-05-29T05:40:51;22.00;1.00
3208;DHT22;1616;52.394;9.756;2023-05-29T05:43:17;22.10;1.00
3208;DHT22;1616;52.394;9.756;2023-05-29T05:45:42;22.20;1.00
3208;DHT22;1616;52.394;9.756;2023-05-29T05:48:08;22.30;1.00
3208;DHT22;1616;52.394;9.756;2023-05-29T05:50:34;22.10;1.00
3208;DHT22;1616;52.394;9.756;2023-05-29T05:53:01;21.90;1.00
3208;DHT22;1616;52.394;9.756;2023-05-29T05:55:27;21.70;1.00
3208;DHT22;1616;52.394;9.756;2023-05-29T05:57:53;21.70;1.00
3208;DHT22;1616;52.394;9.756;2023-05-29T06:00:19;21.60;1.00
3208;DHT22;1616;52.394;9.756;2023-05-29T06:02:45;21.60;1.00
3208;DHT22;1616;52.394;9.756;2023-05-29T06:05:11;21.60;1.00
3208;DHT22;1616;52.394;9.756;2023-05-29T06:07:37;21.60;1.00
3208;DHT22;1616;52.394;9.756;2023-05-29T06:10:04;21.70;1.00
3208;DHT22;1616;52.394;9.756;2023-05-29T06:12:29;21.70;1.00
3208;DHT22;1616;52.394;9.756;2023-05-29T06:14:55;21.90;1.00
3208;DHT22;1616;52.394;9.756;2023-05-29T06:17:22;22.00;1.00
3208;DHT22;1616;52.394;9.756;2023-05-29T06:19:48;22.20;1.00
3208;DHT22;1616;52.394;9.756;2023-05-29T06:22:16;22.30;1.00
3208;DHT22;1616;52.394;9.756;2023-05-29T06:24:42;22.10;1.00
3208;DHT22;1616;52.394;9.756;2023-05-29T06:27:08;21.90;1.00
3208;DHT22;1616;52.394;9.756;2023-05-29T06:29:33;21.90;1.00
3208;DHT22;1616;52.394;9.756;2023-05-29T06:31:59;21.90;1.00
3208;DHT22;1616;52.394;9.756;2023-05-29T06:34:25;22.00;1.00
3208;DHT22;1616;52.394;9.756;2023-05-29T06:36:51;22.00;1.00
3208;DHT22;1616;52.394;9.756;2023-05-29T06:39:17;22.30;1.00
3208;DHT22;1616;52.394;9.756;2023-05-29T06:41:43;22.70;1.00
3208;DHT22;1616;52.394;9.756;2023-05-29T06:44:09;23.30;1.00
3208;DHT22;1616;52.394;9.756;2023-05-29T06:46:35;23.60;1.00
3208;DHT22;1616;52.394;9.756;2023-05-29T06:49:01;23.80;1.00
3208;DHT22;1616;52.394;9.756;2023-05-29T06:51:26;24.00;1.00
3208;DHT22;1616;52.394;9.756;2023-05-29T06:53:52;24.10;1.00
3208;DHT22;1616;52.394;9.756;2023-05-29T06:56:17;24.50;1.00
3208;DHT22;1616;52.394;9.756;2023-05-29T06:58:43;24.80;1.00
3208;DHT22;1616;52.394;9.756;2023-05-29T07:01:11;25.10;1.00
3208;DHT22;1616;52.394;9.756;2023-05-29T07:03:36;25.60;1.00
3208;DHT22;1616;52.394;9.756;2023-05-29T07:06:03;25.80;1.00
3208;DHT22;1616;52.394;9.756;2023-05-29T07:08:28;25.60;1.00
3208;DHT22;1616;52.394;9.756;2023-05-29T07:10:54;25.40;1.00
3208;DHT22;1616;52.394;9.756;2023-05-29T07:13:20;25.30;1.00
3208;DHT22;1616;52.394;9.756;2023-05-29T07:15:47;25.40;1.00
3208;DHT22;1616;52.394;9.756;2023-05-29T07:18:13;25.60;1.00
3208;DHT22;1616;52.394;9.756;2023-05-29T07:20:39;26.00;1.00
3208;DHT22;1616;52.394;9.756;2023-05-29T07:23:05;26.40;1.00
3208;DHT22;1616;52.394;9.756;2023-05-29T07:25:30;26.60;1.00
3208;DHT22;1616;52.394;9.756;2023-05-29T07:27:57;26.50;1.00
3208;DHT22;1616;52.394;9.756;2023-05-29T07:30:22;26.20;1.00
3208;DHT22;1616;52.394;9.756;2023-05-29T07:32:48;25.80;1.00
3208;DHT22;1616;52.394;9.756;2023-05-29T07:35:14;25.70;1.00
3208;DHT22;1616;52.394;9.756;2023-05-29T07:37:40;25.50;1.00
3208;DHT22;1616;52.394;9.756;2023-05-29T07:40:06;25.30;1.00
3208;DHT22;1616;52.394;9.756;2023-05-29T07:42:33;25.30;1.00
3208;DHT22;1616;52.394;9.756;2023-05-29T07:44:59;25.50;1.00
3208;DHT22;1616;52.394;9.756;2023-05-29T07:47:27;25.60;1.00
3208;DHT22;1616;52.394;9.756;2023-05-29T07:49:53;25.90;1.00
3208;DHT22;1616;52.394;9.756;2023-05-29T07:52:19;26.40;1.00
3208;DHT22;1616;52.394;9.756;2023-05-29T07:54:45;26.90;1.00
3208;DHT22;1616;52.394;9.756;2023-05-29T07:57:11;27.30;1.00
3208;DHT22;1616;52.394;9.756;2023-05-29T07:59:37;27.60;1.00
3208;DHT22;1616;52.394;9.756;2023-05-29T08:02:03;27.60;1.00
3208;DHT22;1616;52.394;9.756;2023-05-29T08:04:29;27.90;1.00
3208;DHT22;1616;52.394;9.756;2023-05-29T08:06:56;28.10;1.00
3208;DHT22;1616;52.394;9.756;2023-05-29T08:09:21;28.30;1.00
3208;DHT22;1616;52.394;9.756;2023-05-29T08:11:47;28.60;1.00
3208;DHT22;1616;52.394;9.756;2023-05-29T08:14:16;29.00;1.00
3208;DHT22;1616;52.394;9.756;2023-05-29T08:16:42;29.30;1.00
3208;DHT22;1616;52.394;9.756;2023-05-29T08:19:08;29.50;1.00
3208;DHT22;1616;52.394;9.756;2023-05-29T08:21:33;29.60;1.00
3208;DHT22;1616;52.394;9.756;2023-05-29T08:23:59;29.70;1.00
3208;DHT22;1616;52.394;9.756;2023-05-29T08:26:26;29.80;1.00
3208;DHT22;1616;52.394;9.756;2023-05-29T08:28:52;29.90;1.00
3208;DHT22;1616;52.394;9.756;2023-05-29T08:31:17;29.80;1.00
3208;DHT22;1616;52.394;9.756;2023-05-29T08:33:44;29.60;1.00
3208;DHT22;1616;52.394;9.756;2023-05-29T08:36:10;29.40;1.00
3208;DHT22;1616;52.394;9.756;2023-05-29T08:38:36;29.20;1.00
3208;DHT22;1616;52.394;9.756;2023-05-29T08:41:02;29.10;1.00
3208;DHT22;1616;52.394;9.756;2023-05-29T08:43:31;29.20;1.00
3208;DHT22;1616;52.394;9.756;2023-05-29T08:46:02;29.20;1.00
3208;DHT22;1616;52.394;9.756;2023-05-29T08:48:29;29.30;1.00
3208;DHT22;1616;52.394;9.756;2023-05-29T08:50:57;29.40;1.00
3208;DHT22;1616;52.394;9.756;2023-05-29T08:53:24;29.50;1.00
3208;DHT22;1616;52.394;9.756;2023-05-29T08:55:51;29.70;1.00
3208;DHT22;1616;52.394;9.756;2023-05-29T08:58:19;30.00;1.00
3208;DHT22;1616;52.394;9.756;2023-05-29T09:00:47;30.10;1.00
3208;DHT22;1616;52.394;9.756;2023-05-29T09:03:13;30.00;1.00
3208;DHT22;1616;52.394;9.756;2023-05-29T09:05:40;29.90;1.00
3208;DHT22;1616;52.394;9.756;2023-05-29T09:08:10;29.70;1.00
3208;DHT22;1616;52.394;9.756;2023-05-29T09:10:44;30.00;1.00
3208;DHT22;1616;52.394;9.756;2023-05-29T09:13:11;30.10;1.00
3208;DHT22;1616;52.394;9.756;2023-05-29T09:15:39;30.20;1.00
3208;DHT22;1616;52.394;9.756;2023-05-29T09:18:08;30.30;1.00
3208;DHT22;1616;52.394;9.756;2023-05-29T09:20:34;30.40;1.00
3208;DHT22;1616;52.394;9.756;2023-05-29T09:23:02;30.50;1.00
3208;DHT22;1616;52.394;9.756;2023-05-29T09:25:30;30.70;1.00
3208;DHT22;1616;52.394;9.756;2023-05-29T09:28:01;30.80;1.00
3208;DHT22;1616;52.394;9.756;2023-05-29T09:30:42;31.00;1.00
3208;DHT22;1616;52.394;9.756;2023-05-29T09:33:14;31.20;1.00
3208;DHT22;1616;52.394;9.756;2023-05-29T09:35:45;31.50;1.00
3208;DHT22;1616;52.394;9.756;2023-05-29T09:38:13;31.60;1.00
3208;DHT22;1616;52.394;9.756;2023-05-29T09:40:39;31.70;1.00
3208;DHT22;1616;52.394;9.756;2023-05-29T09:43:10;31.60;1.00
3208;DHT22;1616;52.394;9.756;2023-05-29T09:45:46;31.50;1.00
3208;DHT22;1616;52.394;9.756;2023-05-29T09:50:39;31.70;1.00
3208;DHT22;1616;52.394;9.756;2023-05-29T09:53:25;31.60;1.00
3208;DHT22;1616;52.394;9.756;2023-05-29T09:55:52;31.50;1.00
3208;DHT22;1616;52.394;9.756;2023-05-29T09:58:18;31.60;1.00
3208;DHT22;1616;52.394;9.756;2023-05-29T10:00:45;31.60;1.00
3208;DHT22;1616;52.394;9.756;2023-05-29T10:03:11;31.80;1.00
3208;DHT22;1616;52.394;9.756;2023-05-29T10:05:46;32.10;1.00
3208;DHT22;1616;52.394;9.756;2023-05-29T10:08:13;32.40;1.00
3208;DHT22;1616;52.394;9.756;2023-05-29T10:10:44;32.70;1.00
3208;DHT22;1616;52.394;9.756;2023-05-29T10:13:12;32.90;1.00
3208;DHT22;1616;52.394;9.756;2023-05-29T10:15:41;33.00;1.00
3208;DHT22;1616;52.394;9.756;2023-05-29T10:18:42;33.20;1.00
3208;DHT22;1616;52.394;9.756;2023-05-29T10:21:11;33.30;1.00
3208;DHT22;1616;52.394;9.756;2023-05-29T10:23:38;33.20;1.00
3208;DHT22;1616;52.394;9.756;2023-05-29T10:26:33;33.10;1.00
3208;DHT22;1616;52.394;9.756;2023-05-29T10:29:15;33.20;1.00
3208;DHT22;1616;52.394;9.756;2023-05-29T10:37:32;33.50;1.00
3208;DHT22;1616;52.394;9.756;2023-05-29T10:40:09;33.70;1.00
3208;DHT22;1616;52.394;9.756;2023-05-29T10:45:08;33.50;1.00
3208;DHT22;1616;52.394;9.756;2023-05-29T10:47:34;33.20;1.00
3208;DHT22;1616;52.394;9.756;2023-05-29T10:50:01;33.00;1.00
3208;DHT22;1616;52.394;9.756;2023-05-29T10:52:33;32.90;1.00
3208;DHT22;1616;52.394;9.756;2023-05-29T10:54:58;32.80;1.00
3208;DHT22;1616;52.394;9.756;2023-05-29T10:57:25;33.00;1.00
3208;DHT22;1616;52.394;9.756;2023-05-29T11:00:07;33.10;1.00
3208;DHT22;1616;52.394;9.756;2023-05-29T11:02:39;33.20;1.00
3208;DHT22;1616;52.394;9.756;2023-05-29T11:05:22;33.40;1.00
3208;DHT22;1616;52.394;9.756;2023-05-29T11:07:55;33.60;1.00
3208;DHT22;1616;52.394;9.756;2023-05-29T11:10:43;33.50;1.00
3208;DHT22;1616;52.394;9.756;2023-05-29T11:13:24;33.50;1.00
3208;DHT22;1616;52.394;9.756;2023-05-29T11:16:10;33.50;1.00
3208;DHT22;1616;52.394;9.756;2023-05-29T11:18:43;33.30;1.00
3208;DHT22;1616;52.394;9.756;2023-05-29T11:24:00;33.10;1.00
3208;DHT22;1616;52.394;9.756;2023-05-29T11:26:30;33.20;1.00
3208;DHT22;1616;52.394;9.756;2023-05-29T11:29:02;33.30;1.00
3208;DHT22;1616;52.394;9.756;2023-05-29T11:31:32;33.40;1.00
3208;DHT22;1616;52.394;9.756;2023-05-29T11:34:02;33.20;1.00
3208;DHT22;1616;52.394;9.756;2023-05-29T11:36:33;33.20;1.00
3208;DHT22;1616;52.394;9.756;2023-05-29T11:39:01;33.30;1.00
3208;DHT22;1616;52.394;9.756;2023-05-29T11:41:27;33.40;1.00
3208;DHT22;1616;52.394;9.756;2023-05-29T11:44:13;33.50;1.00
3208;DHT22;1616;52.394;9.756;2023-05-29T11:46:39;33.50;1.00
3208;DHT22;1616;52.394;9.756;2023-05-29T11:49:05;33.50;1.00
3208;DHT22;1616;52.394;9.756;2023-05-29T11:51:31;33.50;1.00
3208;DHT22;1616;52.394;9.756;2023-05-29T11:53:57;33.40;1.00
3208;DHT22;1616;52.394;9.756;2023-05-29T11:56:27;33.20;1.00
3208;DHT22;1616;52.394;9.756;2023-05-29T11:58:53;33.00;1.00
3208;DHT22;1616;52.394;9.756;2023-05-29T12:01:22;32.80;1.00
3208;DHT22;1616;52.394;9.756;2023-05-29T12:03:49;33.00;1.00
3208;DHT22;1616;52.394;9.756;2023-05-29T12:06:15;32.90;1.00
3208;DHT22;1616;52.394;9.756;2023-05-29T12:08:41;32.80;1.00
3208;DHT22;1616;52.394;9.756;2023-05-29T12:11:08;32.90;1.00
3208;DHT22;1616;52.394;9.756;2023-05-29T12:13:34;33.00;1.00
3208;DHT22;1616;52.394;9.756;2023-05-29T12:16:01;32.90;1.00
3208;DHT22;1616;52.394;9.756;2023-05-29T12:18:28;32.90;1.00
3208;DHT22;1616;52.394;9.756;2023-05-29T12:21:00;32.70;1.00
3208;DHT22;1616;52.394;9.756;2023-05-29T12:23:28;32.70;1.00
3208;DHT22;1616;52.394;9.756;2023-05-29T12:25:54;32.90;1.00
3208;DHT22;1616;52.394;9.756;2023-05-29T12:28:20;33.20;1.00
3208;DHT22;1616;52.394;9.756;2023-05-29T12:30:47;33.20;1.00
3208;DHT22;1616;52.394;9.756;2023-05-29T12:33:31;33.00;1.00
3208;DHT22;1616;52.394;9.756;2023-05-29T12:36:07;32.80;1.00
3208;DHT22;1616;52.394;9.756;2023-05-29T12:38:46;32.60;1.00
3208;DHT22;1616;52.394;9.756;2023-05-29T12:41:30;32.30;1.00
3208;DHT22;1616;52.394;9.756;2023-05-29T12:44:00;32.20;1.00
3208;DHT22;1616;52.394;9.756;2023-05-29T12:46:27;31.90;1.00
3208;DHT22;1616;52.394;9.756;2023-05-29T12:48:54;32.00;1.00
3208;DHT22;1616;52.394;9.756;2023-05-29T12:51:24;32.00;1.00
3208;DHT22;1616;52.394;9.756;2023-05-29T12:53:50;32.10;1.00
3208;DHT22;1616;52.394;9.756;2023-05-29T12:56:16;32.00;1.00
3208;DHT22;1616;52.394;9.756;2023-05-29T12:58:42;31.90;1.00
3208;DHT22;1616;52.394;9.756;2023-05-29T13:01:12;31.60;1.00
3208;DHT22;1616;52.394;9.756;2023-05-29T13:03:40;31.30;1.00
3208;DHT22;1616;52.394;9.756;2023-05-29T13:06:06;30.90;1.00
3208;DHT22;1616;52.394;9.756;2023-05-29T13:08:32;30.70;1.00
3208;DHT22;1616;52.394;9.756;2023-05-29T13:10:58;30.50;1.00
3208;DHT22;1616;52.394;9.756;2023-05-29T13:13:24;30.30;1.00
3208;DHT22;1616;52.394;9.756;2023-05-29T13:15:49;29.90;1.00
3208;DHT22;1616;52.394;9.756;2023-05-29T13:18:15;29.50;1.00
3208;DHT22;1616;52.394;9.756;2023-05-29T13:20:41;29.30;1.00
3208;DHT22;1616;52.394;9.756;2023-05-29T13:23:06;29.40;1.00
3208;DHT22;1616;52.394;9.756;2023-05-29T13:25:34;28.60;1.00
3208;DHT22;1616;52.394;9.756;2023-05-29T13:28:00;28.40;1.00
3208;DHT22;1616;52.394;9.756;2023-05-29T13:30:26;28.10;1.00
3208;DHT22;1616;52.394;9.756;2023-05-29T13:32:52;27.80;1.00
3208;DHT22;1616;52.394;9.756;2023-05-29T13:35:18;27.60;1.00
3208;DHT22;1616;52.394;9.756;2023-05-29T13:37:44;27.30;1.00
3208;DHT22;1616;52.394;9.756;2023-05-29T13:40:10;27.00;1.00
3208;DHT22;1616;52.394;9.756;2023-05-29T13:42:37;26.70;1.00
3208;DHT22;1616;52.394;9.756;2023-05-29T13:45:03;26.40;1.00
3208;DHT22;1616;52.394;9.756;2023-05-29T13:47:29;26.10;1.00
3208;DHT22;1616;52.394;9.756;2023-05-29T13:49:57;25.90;1.00
3208;DHT22;1616;52.394;9.756;2023-05-29T13:52:23;25.60;1.00
3208;DHT22;1616;52.394;9.756;2023-05-29T13:54:49;25.40;1.00
3208;DHT22;1616;52.394;9.756;2023-05-29T13:57:14;25.30;1.00
3208;DHT22;1616;52.394;9.756;2023-05-29T13:59:40;25.10;1.00
3208;DHT22;1616;52.394;9.756;2023-05-29T14:02:06;25.00;1.00
3208;DHT22;1616;52.394;9.756;2023-05-29T14:04:33;24.80;1.00
3208;DHT22;1616;52.394;9.756;2023-05-29T14:06:59;24.60;1.00
3208;DHT22;1616;52.394;9.756;2023-05-29T14:09:25;24.50;1.00
3208;DHT22;1616;52.394;9.756;2023-05-29T14:11:54;24.50;1.00
3208;DHT22;1616;52.394;9.756;2023-05-29T14:14:20;24.40;1.00
3208;DHT22;1616;52.394;9.756;2023-05-29T14:16:46;24.30;1.00
3208;DHT22;1616;52.394;9.756;2023-05-29T14:19:12;24.30;1.00
3208;DHT22;1616;52.394;9.756;2023-05-29T14:21:37;24.30;1.00
3208;DHT22;1616;52.394;9.756;2023-05-29T14:24:03;24.30;1.00
3208;DHT22;1616;52.394;9.756;2023-05-29T14:26:29;24.30;1.00
3208;DHT22;1616;52.394;9.756;2023-05-29T14:28:54;24.30;1.00
3208;DHT22;1616;52.394;9.756;2023-05-29T14:31:21;24.20;1.00
3208;DHT22;1616;52.394;9.756;2023-05-29T14:33:46;24.30;1.00
3208;DHT22;1616;52.394;9.756;2023-05-29T14:36:12;24.40;1.00
3208;DHT22;1616;52.394;9.756;2023-05-29T14:38:38;24.40;1.00
3208;DHT22;1616;52.394;9.756;2023-05-29T14:41:04;24.30;1.00
3208;DHT22;1616;52.394;9.756;2023-05-29T14:43:30;24.30;1.00
3208;DHT22;1616;52.394;9.756;2023-05-29T14:45:55;24.30;1.00
3208;DHT22;1616;52.394;9.756;2023-05-29T14:48:21;24.20;1.00
3208;DHT22;1616;52.394;9.756;2023-05-29T14:50:46;24.20;1.00
3208;DHT22;1616;52.394;9.756;2023-05-29T14:53:12;24.10;1.00
3208;DHT22;1616;52.394;9.756;2023-05-29T14:55:37;24.10;1.00
3208;DHT22;1616;52.394;9.756;2023-05-29T14:58:05;24.00;1.00
3208;DHT22;1616;52.394;9.756;2023-05-29T15:00:30;23.90;1.00
3208;DHT22;1616;52.394;9.756;2023-05-29T15:02:57;24.00;1.00
3208;DHT22;1616;52.394;9.756;2023-05-29T15:05:25;24.00;1.00
3208;DHT22;1616;52.394;9.756;2023-05-29T15:07:51;24.00;1.00
3208;DHT22;1616;52.394;9.756;2023-05-29T15:10:20;24.10;1.00
3208;DHT22;1616;52.394;9.756;2023-05-29T15:12:46;24.20;1.00
3208;DHT22;1616;52.394;9.756;2023-05-29T15:15:11;24.20;1.00
3208;DHT22;1616;52.394;9.756;2023-05-29T15:17:37;24.30;1.00
3208;DHT22;1616;52.394;9.756;2023-05-29T15:20:05;24.50;1.00
3208;DHT22;1616;52.394;9.756;2023-05-29T15:22:31;24.60;1.00
3208;DHT22;1616;52.394;9.756;2023-05-29T15:24:56;24.70;1.00
3208;DHT22;1616;52.394;9.756;2023-05-29T15:27:22;24.80;1.00
3208;DHT22;1616;52.394;9.756;2023-05-29T15:29:50;24.80;1.00
3208;DHT22;1616;52.394;9.756;2023-05-29T15:32:15;24.80;1.00
3208;DHT22;1616;52.394;9.756;2023-05-29T15:34:41;24.70;1.00
3208;DHT22;1616;52.394;9.756;2023-05-29T15:37:06;24.70;1.00
3208;DHT22;1616;52.394;9.756;2023-05-29T15:39:32;24.70;1.00
3208;DHT22;1616;52.394;9.756;2023-05-29T15:41:57;24.60;1.00
3208;DHT22;1616;52.394;9.756;2023-05-29T15:44:23;24.50;1.00
3208;DHT22;1616;52.394;9.756;2023-05-29T15:46:48;24.40;1.00
3208;DHT22;1616;52.394;9.756;2023-05-29T15:49:14;24.40;1.00
3208;DHT22;1616;52.394;9.756;2023-05-29T15:51:40;24.40;1.00
3208;DHT22;1616;52.394;9.756;2023-05-29T15:54:06;24.40;1.00
3208;DHT22;1616;52.394;9.756;2023-05-29T15:56:32;24.40;1.00
3208;DHT22;1616;52.394;9.756;2023-05-29T15:58:58;24.40;1.00
3208;DHT22;1616;52.394;9.756;2023-05-29T16:01:24;24.40;1.00
3208;DHT22;1616;52.394;9.756;2023-05-29T16:03:49;24.30;1.00
3208;DHT22;1616;52.394;9.756;2023-05-29T16:06:15;24.30;1.00
3208;DHT22;1616;52.394;9.756;2023-05-29T16:08:41;24.20;1.00
3208;DHT22;1616;52.394;9.756;2023-05-29T16:11:07;24.20;1.00
3208;DHT22;1616;52.394;9.756;2023-05-29T16:13:33;24.20;1.00
3208;DHT22;1616;52.394;9.756;2023-05-29T16:16:00;24.20;1.00
3208;DHT22;1616;52.394;9.756;2023-05-29T16:18:27;24.30;1.00
3208;DHT22;1616;52.394;9.756;2023-05-29T16:20:53;24.30;1.00
3208;DHT22;1616;52.394;9.756;2023-05-29T16:23:19;24.30;1.00
3208;DHT22;1616;52.394;9.756;2023-05-29T16:25:45;24.30;1.00
3208;DHT22;1616;52.394;9.756;2023-05-29T16:28:11;24.20;1.00
3208;DHT22;1616;52.394;9.756;2023-05-29T16:30:38;24.10;1.00
3208;DHT22;1616;52.394;9.756;2023-05-29T16:33:05;24.00;1.00
3208;DHT22;1616;52.394;9.756;2023-05-29T16:35:31;23.90;1.00
3208;DHT22;1616;52.394;9.756;2023-05-29T16:37:58;23.90;1.00